Date,TemperatureHighF,TemperatureAvgF,TemperatureLowF,DewpointHighF,DewpointAvgF,DewpointLowF,HumidityHigh,HumidityAvg,HumidityLow,PressureMaxIn,PressureMinIn,WindSpeedMaxMPH,WindSpeedAvgMPH,GustSpeedMaxMPH,PrecipitationSumIn
2013-11-1,52.3,46.9,42.6,47.0,44.9,42.4,99,93,72,29.78,29.50,13,3,13,0.00
2013-11-2,53.4,42.3,30.6,43.0,37.1,29.8,99,84,49,30.14,29.77,11,2,11,0.00
2013-11-3,64.0,43.2,27.3,46.7,34.1,26.9,99,74,31,30.28,30.13,14,2,14,0.00
2013-11-4,60.1,52.0,45.0,46.7,41.8,36.6,78,69,48,30.18,30.06,17,4,17,0.00
2013-11-5,55.6,53.5,52.3,54.4,51.5,46.6,99,93,78,30.24,29.93,15,2,15,0.00
2013-11-6,57.4,46.3,32.7,57.1,43.8,29.1,99,91,72,30.21,29.83,18,4,18,0.00
2013-11-7,50.4,36.4,26.1,38.1,31.5,25.6,99,83,57,30.28,30.20,15,2,15,0.00
2013-11-8,57.7,42.6,25.7,41.0,31.6,25.0,99,69,38,30.31,29.94,23,5,23,0.00
2013-11-9,63.5,52.3,43.3,41.4,38.0,35.0,79,60,36,30.19,29.90,17,4,17,0.00
2013-11-10,56.1,42.7,32.7,36.6,31.5,28.9,87,66,37,30.39,30.19,10,2,10,0.00
2013-11-11,50.9,40.0,23.9,41.2,32.7,20.1,99,77,56,30.51,30.09,12,2,12,0.00
2013-11-12,23.9,19.6,19.2,19.9,15.9,15.5,87,85,84,30.72,30.52,0,0,0,0.00
2013-11-13,19.2,14.1,0.0,15.5,15.5,15.5,85,62,85,30.60,30.17,0,0,0,0.00
2013-11-14,54.1,24.5,0.0,28.3,19.2,15.5,61,20,25,30.17,29.95,14,2,14,0.00
2013-11-15,52.0,43.4,39.4,40.2,33.3,27.2,87,68,55,29.99,29.88,14,4,14,0.00
2013-11-16,59.9,54.2,43.2,58.2,52.5,39.9,99,94,87,29.89,29.57,33,10,33,0.00
2013-11-17,69.8,56.8,43.7,66.1,53.1,39.8,99,88,69,29.86,29.21,27,8,27,0.00
2013-11-18,49.6,41.4,29.1,40.9,32.6,25.2,93,72,44,30.26,29.85,15,4,15,0.00
2013-11-19,59.4,35.8,15.8,30.5,26.1,12.9,96,73,27,30.33,30.20,11,2,11,0.00
2013-11-20,43.5,38.6,34.0,40.4,33.7,28.5,99,83,63,30.22,30.02,14,1,14,0.00
2013-11-21,50.9,46.1,42.1,48.9,44.2,40.3,99,93,83,30.21,30.05,4,0,4,0.00
2013-11-22,41.9,35.0,24.6,41.6,33.0,22.8,99,92,80,30.49,30.21,11,1,11,0.00
2013-11-23,27.3,20.8,13.8,23.2,14.4,7.4,97,77,44,30.69,30.45,0,0,0,0.00
2013-11-24,14.0,14.0,14.0,7.9,7.9,7.9,76,76,76,30.70,30.34,0,0,0,0.00
2013-11-25,14.0,14.0,14.0,7.9,7.9,7.9,76,76,76,30.34,30.06,0,0,0,0.00
2013-11-26,14.0,14.0,14.0,7.9,7.9,7.9,76,76,76,30.19,30.02,0,0,0,0.00
2013-11-27,32.9,19.7,14.0,12.2,8.7,7.1,76,63,36,30.26,30.16,0,0,0,0.00
2013-11-28,42.1,27.8,17.1,19.6,15.5,10.6,84,61,38,30.45,30.12,0,0,0,0.00
2013-11-29,47.7,29.1,13.1,24.2,18.3,11.0,96,67,29,30.56,30.32,0,0,0,0.00
2013-11-30,57.4,42.0,32.2,35.6,31.1,24.2,88,67,37,30.32,30.03,0,0,0,0.00